sensor_id;sensor_type;location;lat;lon;timestamp;P1;durP1;ratioP1;P2;durP2;ratioP2
13345;SDS011;6742;48.036;15.780;2023-03-22T00:00:45;3.70;;;3.40;;
13345;SDS011;6742;48.036;15.780;2023-03-22T00:03:12;4.00;;;3.70;;
13345;SDS011;6742;48.036;15.780;2023-03-22T00:05:39;3.28;;;3.00;;
13345;SDS011;6742;48.036;15.780;2023-03-22T00:08:06;4.85;;;3.30;;
13345;SDS011;6742;48.036;15.780;2023-03-22T00:10:33;3.60;;;3.30;;
13345;SDS011;6742;48.036;15.780;2023-03-22T00:13:02;3.28;;;2.97;;
13345;SDS011;6742;48.036;15.780;2023-03-22T00:15:30;3.63;;;2.70;;
13345;SDS011;6742;48.036;15.780;2023-03-22T00:17:59;2.63;;;2.42;;
13345;SDS011;6742;48.036;15.780;2023-03-22T00:20:26;2.88;;;2.67;;
13345;SDS011;6742;48.036;15.780;2023-03-22T00:22:54;4.35;;;3.05;;
13345;SDS011;6742;48.036;15.780;2023-03-22T00:25:21;3.10;;;2.72;;
13345;SDS011;6742;48.036;15.780;2023-03-22T00:27:48;3.05;;;2.75;;
13345;SDS011;6742;48.036;15.780;2023-03-22T00:30:16;3.30;;;2.70;;
13345;SDS011;6742;48.036;15.780;2023-03-22T00:32:43;2.80;;;2.60;;
13345;SDS011;6742;48.036;15.780;2023-03-22T00:35:11;3.10;;;2.80;;
13345;SDS011;6742;48.036;15.780;2023-03-22T00:37:38;2.78;;;2.53;;
13345;SDS011;6742;48.036;15.780;2023-03-22T00:40:07;3.22;;;2.40;;
13345;SDS011;6742;48.036;15.780;2023-03-22T00:42:36;3.25;;;2.30;;
13345;SDS011;6742;48.036;15.780;2023-03-22T00:45:05;2.40;;;2.20;;
13345;SDS011;6742;48.036;15.780;2023-03-22T00:47:33;2.40;;;2.20;;
13345;SDS011;6742;48.036;15.780;2023-03-22T00:50:00;2.67;;;2.25;;
13345;SDS011;6742;48.036;15.780;2023-03-22T00:52:29;2.58;;;2.30;;
13345;SDS011;6742;48.036;15.780;2023-03-22T00:54:59;2.15;;;2.05;;
13345;SDS011;6742;48.036;15.780;2023-03-22T00:57:26;2.22;;;2.03;;
13345;SDS011;6742;48.036;15.780;2023-03-22T00:59:53;2.22;;;2.03;;
13345;SDS011;6742;48.036;15.780;2023-03-22T01:02:20;2.40;;;2.20;;
13345;SDS011;6742;48.036;15.780;2023-03-22T01:04:53;2.30;;;2.10;;
13345;SDS011;6742;48.036;15.780;2023-03-22T01:07:21;4.78;;;3.88;;
13345;SDS011;6742;48.036;15.780;2023-03-22T01:09:49;5.60;;;3.60;;
13345;SDS011;6742;48.036;15.780;2023-03-22T01:12:17;2.60;;;2.40;;
13345;SDS011;6742;48.036;15.780;2023-03-22T01:14:44;2.50;;;2.30;;
13345;SDS011;6742;48.036;15.780;2023-03-22T01:17:12;2.33;;;2.13;;
13345;SDS011;6742;48.036;15.780;2023-03-22T01:19:42;2.22;;;2.03;;
13345;SDS011;6742;48.036;15.780;2023-03-22T01:22:09;2.92;;;2.35;;
13345;SDS011;6742;48.036;15.780;2023-03-22T01:24:36;4.15;;;2.90;;
13345;SDS011;6742;48.036;15.780;2023-03-22T01:27:04;3.97;;;3.67;;
13345;SDS011;6742;48.036;15.780;2023-03-22T01:29:31;4.32;;;4.00;;
13345;SDS011;6742;48.036;15.780;2023-03-22T01:31:59;4.50;;;4.10;;
13345;SDS011;6742;48.036;15.780;2023-03-22T01:34:26;6.22;;;5.72;;
13345;SDS011;6742;48.036;15.780;2023-03-22T01:36:53;5.90;;;5.50;;
13345;SDS011;6742;48.036;15.780;2023-03-22T01:39:20;5.57;;;5.18;;
13345;SDS011;6742;48.036;15.780;2023-03-22T01:41:47;4.38;;;4.07;;
13345;SDS011;6742;48.036;15.780;2023-03-22T01:44:16;3.25;;;3.05;;
13345;SDS011;6742;48.036;15.780;2023-03-22T01:46:44;3.35;;;3.05;;
13345;SDS011;6742;48.036;15.780;2023-03-22T01:49:16;3.60;;;3.30;;
13345;SDS011;6742;48.036;15.780;2023-03-22T01:51:48;4.03;;;3.60;;
13345;SDS011;6742;48.036;15.780;2023-03-22T01:54:19;3.10;;;2.90;;
13345;SDS011;6742;48.036;15.780;2023-03-22T01:56:52;2.72;;;2.53;;
13345;SDS011;6742;48.036;15.780;2023-03-22T01:59:20;2.75;;;2.55;;
13345;SDS011;6742;48.036;15.780;2023-03-22T02:01:48;2.90;;;2.40;;
13345;SDS011;6742;48.036;15.780;2023-03-22T02:04:16;3.08;;;2.78;;
13345;SDS011;6742;48.036;15.780;2023-03-22T02:06:47;2.97;;;2.70;;
13345;SDS011;6742;48.036;15.780;2023-03-22T02:09:18;3.15;;;2.42;;
13345;SDS011;6742;48.036;15.780;2023-03-22T02:11:48;2.92;;;2.55;;
13345;SDS011;6742;48.036;15.780;2023-03-22T02:14:26;3.35;;;3.08;;
13345;SDS011;6742;48.036;15.780;2023-03-22T02:17:18;2.53;;;2.33;;
13345;SDS011;6742;48.036;15.780;2023-03-22T02:26:16;2.78;;;2.58;;
13345;SDS011;6742;48.036;15.780;2023-03-22T02:29:16;4.45;;;4.00;;
13345;SDS011;6742;48.036;15.780;2023-03-22T02:32:02;3.28;;;2.97;;
13345;SDS011;6742;48.036;15.780;2023-03-22T02:35:01;2.63;;;2.42;;
13345;SDS011;6742;48.036;15.780;2023-03-22T02:38:12;2.58;;;2.38;;
13345;SDS011;6742;48.036;15.780;2023-03-22T02:40:49;2.40;;;2.20;;
13345;SDS011;6742;48.036;15.780;2023-03-22T02:43:21;2.50;;;2.28;;
13345;SDS011;6742;48.036;15.780;2023-03-22T02:46:01;3.08;;;2.83;;
13345;SDS011;6742;48.036;15.780;2023-03-22T02:48:33;3.47;;;3.17;;
13345;SDS011;6742;48.036;15.780;2023-03-22T02:51:06;4.18;;;3.78;;
13345;SDS011;6742;48.036;15.780;2023-03-22T02:53:39;3.08;;;2.53;;
13345;SDS011;6742;48.036;15.780;2023-03-22T02:56:17;2.85;;;2.22;;
13345;SDS011;6742;48.036;15.780;2023-03-22T02:58:48;2.90;;;2.70;;
13345;SDS011;6742;48.036;15.780;2023-03-22T03:01:19;3.05;;;2.75;;
13345;SDS011;6742;48.036;15.780;2023-03-22T03:03:49;4.20;;;3.10;;
13345;SDS011;6742;48.036;15.780;2023-03-22T03:06:20;3.00;;;2.70;;
13345;SDS011;6742;48.036;15.780;2023-03-22T03:08:50;3.15;;;2.63;;
13345;SDS011;6742;48.036;15.780;2023-03-22T03:11:23;4.15;;;2.80;;
13345;SDS011;6742;48.036;15.780;2023-03-22T03:13:50;3.28;;;2.97;;
13345;SDS011;6742;48.036;15.780;2023-03-22T03:16:19;3.10;;;2.80;;
13345;SDS011;6742;48.036;15.780;2023-03-22T03:18:49;3.28;;;2.97;;
13345;SDS011;6742;48.036;15.780;2023-03-22T03:21:22;4.05;;;2.90;;
13345;SDS011;6742;48.036;15.780;2023-03-22T03:23:59;2.90;;;2.70;;
13345;SDS011;6742;48.036;15.780;2023-03-22T03:26:37;2.88;;;2.60;;
13345;SDS011;6742;48.036;15.780;2023-03-22T03:29:13;2.47;;;2.28;;
13345;SDS011;6742;48.036;15.780;2023-03-22T03:31:46;3.00;;;2.70;;
13345;SDS011;6742;48.036;15.780;2023-03-22T03:34:19;2.70;;;2.50;;
13345;SDS011;6742;48.036;15.780;2023-03-22T03:36:52;3.47;;;2.70;;
13345;SDS011;6742;48.036;15.780;2023-03-22T03:39:23;3.03;;;2.78;;
13345;SDS011;6742;48.036;15.780;2023-03-22T03:41:55;2.72;;;2.53;;
13345;SDS011;6742;48.036;15.780;2023-03-22T03:44:23;5.15;;;2.72;;
13345;SDS011;6742;48.036;15.780;2023-03-22T03:46:50;2.92;;;2.42;;
13345;SDS011;6742;48.036;15.780;2023-03-22T03:49:19;2.53;;;2.33;;
13345;SDS011;6742;48.036;15.780;2023-03-22T03:51:49;3.60;;;3.25;;
13345;SDS011;6742;48.036;15.780;2023-03-22T03:54:18;3.40;;;3.10;;
13345;SDS011;6742;48.036;15.780;2023-03-22T03:56:46;3.17;;;2.95;;
13345;SDS011;6742;48.036;15.780;2023-03-22T03:59:15;3.95;;;2.63;;
13345;SDS011;6742;48.036;15.780;2023-03-22T04:01:43;4.10;;;3.90;;
13345;SDS011;6742;48.036;15.780;2023-03-22T04:04:14;5.75;;;5.25;;
13345;SDS011;6742;48.036;15.780;2023-03-22T04:06:42;4.35;;;4.05;;
13345;SDS011;6742;48.036;15.780;2023-03-22T04:09:09;3.17;;;2.97;;
13345;SDS011;6742;48.036;15.780;2023-03-22T04:11:36;3.47;;;3.17;;
13345;SDS011;6742;48.036;15.780;2023-03-22T04:14:03;3.58;;;3.28;;
13345;SDS011;6742;48.036;15.780;2023-03-22T04:16:31;3.45;;;3.15;;
13345;SDS011;6742;48.036;15.780;2023-03-22T04:18:58;3.40;;;3.10;;
13345;SDS011;6742;48.036;15.780;2023-03-22T04:21:25;3.22;;;3.03;;
13345;SDS011;6742;48.036;15.780;2023-03-22T04:23:52;3.70;;;3.40;;
13345;SDS011;6742;48.036;15.780;2023-03-22T04:26:19;3.70;;;3.40;;
13345;SDS011;6742;48.036;15.780;2023-03-22T04:28:46;3.58;;;3.20;;
13345;SDS011;6742;48.036;15.780;2023-03-22T04:31:13;3.03;;;2.72;;
13345;SDS011;6742;48.036;15.780;2023-03-22T04:33:43;3.33;;;2.70;;
13345;SDS011;6742;48.036;15.780;2023-03-22T04:36:11;3.08;;;2.85;;
13345;SDS011;6742;48.036;15.780;2023-03-22T04:38:41;2.67;;;2.47;;
13345;SDS011;6742;48.036;15.780;2023-03-22T04:41:09;2.58;;;2.38;;
13345;SDS011;6742;48.036;15.780;2023-03-22T04:43:36;3.10;;;2.42;;
13345;SDS011;6742;48.036;15.780;2023-03-22T04:46:03;2.63;;;2.40;;
13345;SDS011;6742;48.036;15.780;2023-03-22T04:48:34;2.72;;;2.53;;
13345;SDS011;6742;48.036;15.780;2023-03-22T04:51:03;2.67;;;2.47;;
13345;SDS011;6742;48.036;15.780;2023-03-22T04:53:30;2.47;;;2.28;;
13345;SDS011;6742;48.036;15.780;2023-03-22T04:56:03;2.35;;;2.13;;
13345;SDS011;6742;48.036;15.780;2023-03-22T04:58:32;2.55;;;2.35;;
13345;SDS011;6742;48.036;15.780;2023-03-22T05:01:00;2.40;;;2.20;;
13345;SDS011;6742;48.036;15.780;2023-03-22T05:03:27;2.60;;;2.40;;
13345;SDS011;6742;48.036;15.780;2023-03-22T05:05:54;4.18;;;2.50;;
13345;SDS011;6742;48.036;15.780;2023-03-22T05:08:24;4.32;;;2.78;;
13345;SDS011;6742;48.036;15.780;2023-03-22T05:10:53;2.95;;;2.50;;
13345;SDS011;6742;48.036;15.780;2023-03-22T05:13:22;2.78;;;2.53;;
13345;SDS011;6742;48.036;15.780;2023-03-22T05:15:50;2.70;;;2.50;;
13345;SDS011;6742;48.036;15.780;2023-03-22T05:18:18;3.72;;;2.90;;
13345;SDS011;6742;48.036;15.780;2023-03-22T05:20:48;2.70;;;2.50;;
13345;SDS011;6742;48.036;15.780;2023-03-22T05:23:18;2.88;;;2.63;;
13345;SDS011;6742;48.036;15.780;2023-03-22T05:25:46;3.28;;;2.20;;
13345;SDS011;6742;48.036;15.780;2023-03-22T05:28:14;2.22;;;2.13;;
13345;SDS011;6742;48.036;15.780;2023-03-22T05:30:43;2.50;;;2.30;;
13345;SDS011;6742;48.036;15.780;2023-03-22T05:33:11;2.55;;;2.35;;
13345;SDS011;6742;48.036;15.780;2023-03-22T05:35:38;2.40;;;2.20;;
13345;SDS011;6742;48.036;15.780;2023-03-22T05:38:09;3.72;;;2.60;;
13345;SDS011;6742;48.036;15.780;2023-03-22T05:40:38;2.70;;;2.50;;
13345;SDS011;6742;48.036;15.780;2023-03-22T05:43:07;3.78;;;3.47;;
13345;SDS011;6742;48.036;15.780;2023-03-22T05:45:34;8.10;;;7.40;;
13345;SDS011;6742;48.036;15.780;2023-03-22T05:48:02;7.60;;;6.90;;
13345;SDS011;6742;48.036;15.780;2023-03-22T05:50:29;7.88;;;7.07;;
13345;SDS011;6742;48.036;15.780;2023-03-22T05:52:56;7.30;;;6.53;;
13345;SDS011;6742;48.036;15.780;2023-03-22T05:55:23;7.82;;;7.13;;
13345;SDS011;6742;48.036;15.780;2023-03-22T05:57:50;7.40;;;6.63;;
13345;SDS011;6742;48.036;15.780;2023-03-22T06:00:20;6.65;;;5.50;;
13345;SDS011;6742;48.036;15.780;2023-03-22T06:02:48;6.22;;;5.63;;
13345;SDS011;6742;48.036;15.780;2023-03-22T06:05:16;4.70;;;4.32;;
13345;SDS011;6742;48.036;15.780;2023-03-22T06:07:45;5.78;;;5.38;;
13345;SDS011;6742;48.036;15.780;2023-03-22T06:10:12;5.30;;;4.80;;
13345;SDS011;6742;48.036;15.780;2023-03-22T06:12:41;4.55;;;4.15;;
13345;SDS011;6742;48.036;15.780;2023-03-22T06:15:08;4.25;;;3.60;;
13345;SDS011;6742;48.036;15.780;2023-03-22T06:17:37;4.68;;;2.75;;
13345;SDS011;6742;48.036;15.780;2023-03-22T06:20:05;4.18;;;2.78;;
13345;SDS011;6742;48.036;15.780;2023-03-22T06:22:35;4.20;;;3.67;;
13345;SDS011;6742;48.036;15.780;2023-03-22T06:25:03;5.80;;;4.53;;
13345;SDS011;6742;48.036;15.780;2023-03-22T06:27:30;4.75;;;4.05;;
13345;SDS011;6742;48.036;15.780;2023-03-22T06:29:57;4.88;;;3.90;;
13345;SDS011;6742;48.036;15.780;2023-03-22T06:32:24;4.78;;;4.38;;
13345;SDS011;6742;48.036;15.780;2023-03-22T06:34:53;4.30;;;3.88;;
13345;SDS011;6742;48.036;15.780;2023-03-22T06:37:20;5.22;;;3.35;;
13345;SDS011;6742;48.036;15.780;2023-03-22T06:39:48;4.32;;;2.72;;
13345;SDS011;6742;48.036;15.780;2023-03-22T06:42:18;4.57;;;2.65;;
13345;SDS011;6742;48.036;15.780;2023-03-22T06:44:45;3.65;;;2.50;;
13345;SDS011;6742;48.036;15.780;2023-03-22T06:47:12;2.85;;;2.30;;
13345;SDS011;6742;48.036;15.780;2023-03-22T06:49:39;4.53;;;2.35;;
13345;SDS011;6742;48.036;15.780;2023-03-22T06:52:07;5.50;;;2.40;;
13345;SDS011;6742;48.036;15.780;2023-03-22T06:54:34;5.45;;;2.83;;
13345;SDS011;6742;48.036;15.780;2023-03-22T06:57:01;3.10;;;2.72;;
13345;SDS011;6742;48.036;15.780;2023-03-22T06:59:28;7.05;;;2.63;;
13345;SDS011;6742;48.036;15.780;2023-03-22T07:01:55;4.70;;;2.42;;
13345;SDS011;6742;48.036;15.780;2023-03-22T07:04:22;5.47;;;2.67;;
13345;SDS011;6742;48.036;15.780;2023-03-22T07:06:51;4.32;;;2.35;;
13345;SDS011;6742;48.036;15.780;2023-03-22T07:09:20;13.25;;;7.40;;
13345;SDS011;6742;48.036;15.780;2023-03-22T07:11:48;5.72;;;2.85;;
13345;SDS011;6742;48.036;15.780;2023-03-22T07:14:15;2.65;;;2.40;;
13345;SDS011;6742;48.036;15.780;2023-03-22T07:16:42;3.42;;;2.40;;
13345;SDS011;6742;48.036;15.780;2023-03-22T07:19:08;3.20;;;2.30;;
13345;SDS011;6742;48.036;15.780;2023-03-22T07:21:36;4.22;;;2.45;;
13345;SDS011;6742;48.036;15.780;2023-03-22T07:24:03;2.30;;;2.10;;
13345;SDS011;6742;48.036;15.780;2023-03-22T07:26:32;3.72;;;2.55;;
13345;SDS011;6742;48.036;15.780;2023-03-22T07:28:59;2.58;;;2.38;;
13345;SDS011;6742;48.036;15.780;2023-03-22T07:31:25;2.65;;;2.20;;
13345;SDS011;6742;48.036;15.780;2023-03-22T07:33:53;3.63;;;2.50;;
13345;SDS011;6742;48.036;15.780;2023-03-22T07:36:20;2.38;;;2.17;;
13345;SDS011;6742;48.036;15.780;2023-03-22T07:38:49;2.47;;;2.28;;
13345;SDS011;6742;48.036;15.780;2023-03-22T07:41:17;5.43;;;2.42;;
13345;SDS011;6742;48.036;15.780;2023-03-22T07:43:45;6.55;;;2.80;;
13345;SDS011;6742;48.036;15.780;2023-03-22T07:46:12;3.22;;;2.53;;
13345;SDS011;6742;48.036;15.780;2023-03-22T07:48:39;2.20;;;2.00;;
13345;SDS011;6742;48.036;15.780;2023-03-22T07:51:06;2.50;;;2.30;;
13345;SDS011;6742;48.036;15.780;2023-03-22T07:53:33;3.53;;;2.30;;
13345;SDS011;6742;48.036;15.780;2023-03-22T07:56:00;2.60;;;2.40;;
13345;SDS011;6742;48.036;15.780;2023-03-22T07:58:28;4.10;;;2.30;;
13345;SDS011;6742;48.036;15.780;2023-03-22T08:00:56;2.92;;;2.40;;
13345;SDS011;6742;48.036;15.780;2023-03-22T08:03:28;4.20;;;2.38;;
13345;SDS011;6742;48.036;15.780;2023-03-22T08:05:55;4.32;;;2.45;;
13345;SDS011;6742;48.036;15.780;2023-03-22T08:08:27;2.72;;;2.25;;
13345;SDS011;6742;48.036;15.780;2023-03-22T08:10:54;4.38;;;3.05;;
13345;SDS011;6742;48.036;15.780;2023-03-22T08:13:21;4.72;;;2.83;;
13345;SDS011;6742;48.036;15.780;2023-03-22T08:15:48;3.17;;;2.72;;
13345;SDS011;6742;48.036;15.780;2023-03-22T08:18:17;2.75;;;2.55;;
13345;SDS011;6742;48.036;15.780;2023-03-22T08:20:43;3.78;;;2.60;;
13345;SDS011;6742;48.036;15.780;2023-03-22T08:23:11;3.80;;;2.50;;
13345;SDS011;6742;48.036;15.780;2023-03-22T08:25:40;5.30;;;2.78;;
13345;SDS011;6742;48.036;15.780;2023-03-22T08:28:07;6.82;;;2.90;;
13345;SDS011;6742;48.036;15.780;2023-03-22T08:30:35;4.10;;;3.10;;
13345;SDS011;6742;48.036;15.780;2023-03-22T08:33:02;3.03;;;2.28;;
13345;SDS011;6742;48.036;15.780;2023-03-22T08:35:31;3.03;;;2.20;;
13345;SDS011;6742;48.036;15.780;2023-03-22T08:37:58;2.72;;;2.47;;
13345;SDS011;6742;48.036;15.780;2023-03-22T08:40:25;2.83;;;2.50;;
13345;SDS011;6742;48.036;15.780;2023-03-22T08:42:52;3.20;;;2.33;;
13345;SDS011;6742;48.036;15.780;2023-03-22T08:45:19;2.55;;;2.30;;
13345;SDS011;6742;48.036;15.780;2023-03-22T08:47:46;3.05;;;2.78;;
13345;SDS011;6742;48.036;15.780;2023-03-22T08:50:13;3.65;;;2.42;;
13345;SDS011;6742;48.036;15.780;2023-03-22T08:52:42;5.20;;;3.85;;
13345;SDS011;6742;48.036;15.780;2023-03-22T08:55:09;3.10;;;2.80;;
13345;SDS011;6742;48.036;15.780;2023-03-22T08:57:36;3.88;;;3.05;;
13345;SDS011;6742;48.036;15.780;2023-03-22T09:00:03;3.45;;;3.15;;
13345;SDS011;6742;48.036;15.780;2023-03-22T09:02:31;3.08;;;2.72;;
13345;SDS011;6742;48.036;15.780;2023-03-22T09:04:58;3.30;;;3.00;;
13345;SDS011;6742;48.036;15.780;2023-03-22T09:07:26;3.70;;;3.40;;
13345;SDS011;6742;48.036;15.780;2023-03-22T09:09:54;4.30;;;3.10;;
13345;SDS011;6742;48.036;15.780;2023-03-22T09:12:21;3.97;;;3.67;;
13345;SDS011;6742;48.036;15.780;2023-03-22T09:14:48;4.90;;;4.50;;
13345;SDS011;6742;48.036;15.780;2023-03-22T09:17:15;4.95;;;4.25;;
13345;SDS011;6742;48.036;15.780;2023-03-22T09:19:43;6.05;;;5.45;;
13345;SDS011;6742;48.036;15.780;2023-03-22T09:22:11;5.97;;;5.38;;
13345;SDS011;6742;48.036;15.780;2023-03-22T09:24:38;5.80;;;5.30;;
13345;SDS011;6742;48.036;15.780;2023-03-22T09:27:07;5.93;;;5.43;;
13345;SDS011;6742;48.036;15.780;2023-03-22T09:29:34;5.85;;;4.57;;
13345;SDS011;6742;48.036;15.780;2023-03-22T09:32:01;5.82;;;5.32;;
13345;SDS011;6742;48.036;15.780;2023-03-22T09:34:31;5.20;;;4.80;;
13345;SDS011;6742;48.036;15.780;2023-03-22T09:36:58;6.30;;;5.43;;
13345;SDS011;6742;48.036;15.780;2023-03-22T09:39:30;5.55;;;5.00;;
13345;SDS011;6742;48.036;15.780;2023-03-22T09:41:57;4.65;;;4.22;;
13345;SDS011;6742;48.036;15.780;2023-03-22T09:44:30;6.60;;;4.55;;
13345;SDS011;6742;48.036;15.780;2023-03-22T09:46:59;4.13;;;3.72;;
13345;SDS011;6742;48.036;15.780;2023-03-22T09:49:31;5.72;;;4.00;;
13345;SDS011;6742;48.036;15.780;2023-03-22T09:52:01;4.10;;;3.67;;
13345;SDS011;6742;48.036;15.780;2023-03-22T09:54:36;4.07;;;3.17;;
13345;SDS011;6742;48.036;15.780;2023-03-22T09:57:07;6.95;;;3.65;;
13345;SDS011;6742;48.036;15.780;2023-03-22T09:59:42;5.38;;;3.97;;
13345;SDS011;6742;48.036;15.780;2023-03-22T10:02:21;4.80;;;4.30;;
13345;SDS011;6742;48.036;15.780;2023-03-22T10:05:03;5.03;;;3.33;;
13345;SDS011;6742;48.036;15.780;2023-03-22T10:07:39;4.35;;;3.95;;
13345;SDS011;6742;48.036;15.780;2023-03-22T10:10:24;4.57;;;3.92;;
13345;SDS011;6742;48.036;15.780;2023-03-22T10:12:52;3.60;;;3.13;;
13345;SDS011;6742;48.036;15.780;2023-03-22T10:15:29;4.43;;;4.03;;
13345;SDS011;6742;48.036;15.780;2023-03-22T10:18:00;3.53;;;3.22;;
13345;SDS011;6742;48.036;15.780;2023-03-22T10:20:31;4.07;;;3.67;;
13345;SDS011;6742;48.036;15.780;2023-03-22T10:23:08;3.63;;;3.33;;
13345;SDS011;6742;48.036;15.780;2023-03-22T10:25:38;3.20;;;2.90;;
13345;SDS011;6742;48.036;15.780;2023-03-22T10:28:14;3.03;;;2.75;;
13345;SDS011;6742;48.036;15.780;2023-03-22T10:30:45;5.15;;;3.47;;
13345;SDS011;6742;48.036;15.780;2023-03-22T10:33:18;4.07;;;3.60;;
13345;SDS011;6742;48.036;15.780;2023-03-22T10:35:53;4.90;;;3.13;;
13345;SDS011;6742;48.036;15.780;2023-03-22T10:38:22;3.75;;;2.92;;
13345;SDS011;6742;48.036;15.780;2023-03-22T10:40:51;3.83;;;3.10;;
13345;SDS011;6742;48.036;15.780;2023-03-22T10:43:21;4.38;;;2.80;;
13345;SDS011;6742;48.036;15.780;2023-03-22T10:45:53;3.53;;;2.90;;
13345;SDS011;6742;48.036;15.780;2023-03-22T10:48:27;3.25;;;2.95;;
13345;SDS011;6742;48.036;15.780;2023-03-22T10:50:57;5.63;;;3.70;;
13345;SDS011;6742;48.036;15.780;2023-03-22T10:53:33;3.38;;;3.00;;
13345;SDS011;6742;48.036;15.780;2023-03-22T10:56:03;3.60;;;3.30;;
13345;SDS011;6742;48.036;15.780;2023-03-22T10:58:36;2.97;;;2.67;;
13345;SDS011;6742;48.036;15.780;2023-03-22T11:01:06;3.05;;;2.85;;
13345;SDS011;6742;48.036;15.780;2023-03-22T11:03:36;3.25;;;2.83;;
13345;SDS011;6742;48.036;15.780;2023-03-22T11:06:06;4.10;;;3.70;;
13345;SDS011;6742;48.036;15.780;2023-03-22T11:08:41;3.13;;;2.83;;
13345;SDS011;6742;48.036;15.780;2023-03-22T11:11:14;4.07;;;2.72;;
13345;SDS011;6742;48.036;15.780;2023-03-22T11:13:48;3.00;;;2.80;;
13345;SDS011;6742;48.036;15.780;2023-03-22T11:16:21;3.40;;;3.10;;
13345;SDS011;6742;48.036;15.780;2023-03-22T11:18:49;3.47;;;2.78;;
13345;SDS011;6742;48.036;15.780;2023-03-22T11:21:16;3.00;;;2.80;;
13345;SDS011;6742;48.036;15.780;2023-03-22T11:23:48;3.20;;;2.90;;
13345;SDS011;6742;48.036;15.780;2023-03-22T11:26:24;2.42;;;2.22;;
13345;SDS011;6742;48.036;15.780;2023-03-22T11:29:00;2.58;;;2.38;;
13345;SDS011;6742;48.036;15.780;2023-03-22T11:31:46;3.47;;;3.17;;
13345;SDS011;6742;48.036;15.780;2023-03-22T11:34:20;2.90;;;2.70;;
13345;SDS011;6742;48.036;15.780;2023-03-22T11:36:48;3.22;;;2.63;;
13345;SDS011;6742;48.036;15.780;2023-03-22T11:39:20;5.75;;;2.70;;
13345;SDS011;6742;48.036;15.780;2023-03-22T11:41:48;3.63;;;2.47;;
13345;SDS011;6742;48.036;15.780;2023-03-22T11:44:17;5.13;;;2.45;;
13345;SDS011;6742;48.036;15.780;2023-03-22T11:46:53;2.80;;;2.60;;
13345;SDS011;6742;48.036;15.780;2023-03-22T11:49:22;2.92;;;2.55;;
13345;SDS011;6742;48.036;15.780;2023-03-22T11:51:57;3.55;;;2.75;;
13345;SDS011;6742;48.036;15.780;2023-03-22T11:54:33;2.33;;;2.10;;
13345;SDS011;6742;48.036;15.780;2023-03-22T11:57:03;4.15;;;2.60;;
13345;SDS011;6742;48.036;15.780;2023-03-22T11:59:35;3.22;;;2.30;;
13345;SDS011;6742;48.036;15.780;2023-03-22T12:02:11;3.55;;;2.50;;
13345;SDS011;6742;48.036;15.780;2023-03-22T12:04:43;2.35;;;2.15;;
13345;SDS011;6742;48.036;15.780;2023-03-22T12:07:13;2.85;;;2.05;;
13345;SDS011;6742;48.036;15.780;2023-03-22T12:09:45;2.67;;;2.30;;
13345;SDS011;6742;48.036;15.780;2023-03-22T12:12:18;3.00;;;2.55;;
13345;SDS011;6742;48.036;15.780;2023-03-22T12:14:50;2.40;;;2.20;;
13345;SDS011;6742;48.036;15.780;2023-03-22T12:17:25;1.80;;;1.70;;
13345;SDS011;6742;48.036;15.780;2023-03-22T12:19:59;2.65;;;2.08;;
13345;SDS011;6742;48.036;15.780;2023-03-22T12:22:33;1.88;;;1.50;;
13345;SDS011;6742;48.036;15.780;2023-03-22T12:25:07;1.55;;;1.45;;
13345;SDS011;6742;48.036;15.780;2023-03-22T12:27:37;1.58;;;1.48;;
13345;SDS011;6742;48.036;15.780;2023-03-22T12:30:10;2.10;;;1.90;;
13345;SDS011;6742;48.036;15.780;2023-03-22T12:32:42;2.20;;;1.60;;
13345;SDS011;6742;48.036;15.780;2023-03-22T12:35:14;2.17;;;1.55;;
13345;SDS011;6742;48.036;15.780;2023-03-22T12:37:47;1.80;;;1.70;;
13345;SDS011;6742;48.036;15.780;2023-03-22T12:40:20;1.45;;;1.35;;
13345;SDS011;6742;48.036;15.780;2023-03-22T12:42:50;2.22;;;1.92;;
13345;SDS011;6742;48.036;15.780;2023-03-22T12:45:25;1.67;;;1.58;;
13345;SDS011;6742;48.036;15.780;2023-03-22T12:47:56;1.58;;;1.40;;
13345;SDS011;6742;48.036;15.780;2023-03-22T12:50:32;2.42;;;1.60;;
13345;SDS011;6742;48.036;15.780;2023-03-22T12:53:01;1.70;;;1.60;;
13345;SDS011;6742;48.036;15.780;2023-03-22T12:55:31;1.80;;;1.60;;
13345;SDS011;6742;48.036;15.780;2023-03-22T12:58:00;1.80;;;1.55;;
13345;SDS011;6742;48.036;15.780;2023-03-22T13:00:28;1.40;;;1.30;;
13345;SDS011;6742;48.036;15.780;2023-03-22T13:03:06;1.60;;;1.50;;
13345;SDS011;6742;48.036;15.780;2023-03-22T13:05:44;2.05;;;1.80;;
13345;SDS011;6742;48.036;15.780;2023-03-22T13:08:13;1.83;;;1.70;;
13345;SDS011;6742;48.036;15.780;2023-03-22T13:13:32;1.67;;;1.48;;
13345;SDS011;6742;48.036;15.780;2023-03-22T13:16:13;1.85;;;1.50;;
13345;SDS011;6742;48.036;15.780;2023-03-22T13:19:01;1.88;;;1.60;;
13345;SDS011;6742;48.036;15.780;2023-03-22T13:21:41;2.90;;;1.70;;
13345;SDS011;6742;48.036;15.780;2023-03-22T13:24:18;2.30;;;1.73;;
13345;SDS011;6742;48.036;15.780;2023-03-22T13:26:47;1.98;;;1.75;;
13345;SDS011;6742;48.036;15.780;2023-03-22T13:29:19;1.65;;;1.50;;
13345;SDS011;6742;48.036;15.780;2023-03-22T13:31:57;1.95;;;1.63;;
13345;SDS011;6742;48.036;15.780;2023-03-22T13:34:31;1.80;;;1.70;;
13345;SDS011;6742;48.036;15.780;2023-03-22T13:37:06;1.73;;;1.50;;
13345;SDS011;6742;48.036;15.780;2023-03-22T13:39:34;2.28;;;1.60;;
13345;SDS011;6742;48.036;15.780;2023-03-22T13:42:07;2.25;;;1.70;;
13345;SDS011;6742;48.036;15.780;2023-03-22T13:44:42;3.80;;;1.33;;
13345;SDS011;6742;48.036;15.780;2023-03-22T13:50:02;1.50;;;1.15;;
13345;SDS011;6742;48.036;15.780;2023-03-22T13:52:36;1.77;;;1.25;;
13345;SDS011;6742;48.036;15.780;2023-03-22T13:55:12;2.95;;;1.33;;
13345;SDS011;6742;48.036;15.780;2023-03-22T13:58:02;2.42;;;1.33;;
13345;SDS011;6742;48.036;15.780;2023-03-22T14:00:35;2.83;;;1.60;;
13345;SDS011;6742;48.036;15.780;2023-03-22T14:03:06;3.13;;;1.30;;
13345;SDS011;6742;48.036;15.780;2023-03-22T14:05:41;1.02;;;1.00;;
13345;SDS011;6742;48.036;15.780;2023-03-22T14:08:16;1.40;;;1.30;;
13345;SDS011;6742;48.036;15.780;2023-03-22T14:10:52;1.55;;;1.10;;
13345;SDS011;6742;48.036;15.780;2023-03-22T14:13:26;1.42;;;1.33;;
13345;SDS011;6742;48.036;15.780;2023-03-22T14:15:57;2.25;;;1.10;;
13345;SDS011;6742;48.036;15.780;2023-03-22T14:18:30;1.92;;;1.27;;
13345;SDS011;6742;48.036;15.780;2023-03-22T14:21:00;1.30;;;1.20;;
13345;SDS011;6742;48.036;15.780;2023-03-22T14:23:33;1.23;;;1.02;;
13345;SDS011;6742;48.036;15.780;2023-03-22T14:26:05;2.15;;;1.33;;
13345;SDS011;6742;48.036;15.780;2023-03-22T14:28:34;2.42;;;1.20;;
13345;SDS011;6742;48.036;15.780;2023-03-22T14:31:04;1.60;;;1.42;;
13345;SDS011;6742;48.036;15.780;2023-03-22T14:33:33;1.27;;;1.10;;
13345;SDS011;6742;48.036;15.780;2023-03-22T14:36:04;1.25;;;1.10;;
13345;SDS011;6742;48.036;15.780;2023-03-22T14:38:33;1.20;;;1.10;;
13345;SDS011;6742;48.036;15.780;2023-03-22T14:41:08;1.63;;;1.38;;
13345;SDS011;6742;48.036;15.780;2023-03-22T14:43:37;1.20;;;1.10;;
13345;SDS011;6742;48.036;15.780;2023-03-22T14:46:06;1.50;;;1.40;;
13345;SDS011;6742;48.036;15.780;2023-03-22T14:48:40;1.20;;;1.00;;
13345;SDS011;6742;48.036;15.780;2023-03-22T14:51:13;3.45;;;2.30;;
13345;SDS011;6742;48.036;15.780;2023-03-22T14:53:44;1.30;;;1.20;;
13345;SDS011;6742;48.036;15.780;2023-03-22T14:56:14;2.47;;;1.45;;
13345;SDS011;6742;48.036;15.780;2023-03-22T14:58:45;1.88;;;1.33;;
13345;SDS011;6742;48.036;15.780;2023-03-22T15:01:14;4.20;;;1.60;;
13345;SDS011;6742;48.036;15.780;2023-03-22T15:03:45;2.05;;;1.25;;
13345;SDS011;6742;48.036;15.780;2023-03-22T15:06:15;1.95;;;1.30;;
13345;SDS011;6742;48.036;15.780;2023-03-22T15:08:43;1.52;;;1.27;;
13345;SDS011;6742;48.036;15.780;2023-03-22T15:11:11;1.63;;;1.52;;
13345;SDS011;6742;48.036;15.780;2023-03-22T15:13:43;1.48;;;1.30;;
13345;SDS011;6742;48.036;15.780;2023-03-22T15:16:17;2.42;;;1.25;;
13345;SDS011;6742;48.036;15.780;2023-03-22T15:18:46;1.77;;;1.17;;